createdAt,value
2017-10-07T00:00:04.253Z,1010.89
2017-10-07T00:01:04.251Z,1010.89
2017-10-07T00:02:04.252Z,1010.91
2017-10-07T00:03:04.233Z,1010.92
2017-10-07T00:04:04.330Z,1010.89
2017-10-07T00:05:04.257Z,1010.89
2017-10-07T00:06:04.304Z,1010.91
2017-10-07T00:07:04.259Z,1010.88
2017-10-07T00:08:04.253Z,1010.89
2017-10-07T00:09:04.265Z,1010.89
2017-10-07T00:10:04.329Z,1010.92
2017-10-07T00:11:04.301Z,1010.88
2017-10-07T00:12:04.307Z,1010.91
2017-10-07T00:13:04.309Z,1010.91
2017-10-07T00:14:04.304Z,1010.92
2017-10-07T00:15:04.263Z,1010.89
2017-10-07T00:16:04.333Z,1010.95
2017-10-07T00:17:04.315Z,1010.98
2017-10-07T00:18:04.330Z,1010.95
2017-10-07T00:19:04.258Z,1010.95
2017-10-07T00:20:04.310Z,1010.94
2017-10-07T00:21:04.264Z,1010.94
2017-10-07T00:22:04.268Z,1010.94
2017-10-07T00:23:04.227Z,1010.95
2017-10-07T00:24:04.204Z,1010.99
2017-10-07T00:25:04.266Z,1010.97
2017-10-07T00:26:04.233Z,1010.96
2017-10-07T00:27:04.237Z,1010.97
2017-10-07T00:28:04.235Z,1010.96
2017-10-07T00:29:04.208Z,1010.92
2017-10-07T00:30:04.231Z,1010.94
2017-10-07T00:31:04.333Z,1010.92
2017-10-07T00:32:04.269Z,1010.92
2017-10-07T00:33:04.271Z,1010.86
2017-10-07T00:34:04.269Z,1010.82
2017-10-07T00:35:04.219Z,1010.88
2017-10-07T00:36:04.298Z,1010.89
2017-10-07T00:37:04.275Z,1010.84
2017-10-07T00:38:04.284Z,1010.89
2017-10-07T00:39:04.321Z,1010.87
2017-10-07T00:40:04.307Z,1010.85
2017-10-07T00:41:04.213Z,1010.83
2017-10-07T00:42:04.277Z,1010.79
2017-10-07T00:43:04.239Z,1010.83
2017-10-07T00:44:04.246Z,1010.78
2017-10-07T00:45:04.242Z,1010.80
2017-10-07T00:46:04.285Z,1010.75
2017-10-07T00:47:04.279Z,1010.78
2017-10-07T00:48:04.276Z,1010.72
2017-10-07T00:49:04.218Z,1010.79
2017-10-07T00:50:04.219Z,1010.79
2017-10-07T00:51:04.261Z,1010.85
2017-10-07T00:52:04.357Z,1010.80
2017-10-07T00:53:04.286Z,1010.80
2017-10-07T00:54:04.288Z,1010.82
2017-10-07T00:55:04.284Z,1010.81
2017-10-07T00:56:04.279Z,1010.83
2017-10-07T00:57:04.241Z,1010.79
2017-10-07T00:58:04.334Z,1010.75
2017-10-07T00:59:04.285Z,1010.65
2017-10-07T01:00:04.299Z,1010.72
2017-10-07T01:01:04.368Z,1010.75
2017-10-07T01:02:04.336Z,1010.76
2017-10-07T01:03:04.286Z,1010.69
2017-10-07T01:04:04.352Z,1010.69
2017-10-07T01:05:04.290Z,1010.70
2017-10-07T01:06:04.370Z,1010.72
2017-10-07T01:07:04.337Z,1010.68
2017-10-07T01:08:04.295Z,1010.68
2017-10-07T01:09:04.339Z,1010.64
2017-10-07T01:10:04.293Z,1010.66
2017-10-07T01:11:04.292Z,1010.66
2017-10-07T01:12:04.294Z,1010.66
2017-10-07T01:13:04.230Z,1010.69
2017-10-07T01:14:04.263Z,1010.68
2017-10-07T01:15:04.234Z,1010.62
2017-10-07T01:16:04.256Z,1010.65
2017-10-07T01:17:04.234Z,1010.69
2017-10-07T01:18:04.292Z,1010.60
2017-10-07T01:19:04.239Z,1010.64
2017-10-07T01:20:04.266Z,1010.60
2017-10-07T01:21:04.298Z,1010.59
2017-10-07T01:22:04.348Z,1010.60
2017-10-07T01:23:04.316Z,1010.59
2017-10-07T01:24:04.369Z,1010.58
2017-10-07T01:25:04.300Z,1010.55
2017-10-07T01:26:04.300Z,1010.50
2017-10-07T01:27:04.308Z,1010.49
2017-10-07T01:28:04.347Z,1010.51
2017-10-07T01:29:04.345Z,1010.52
2017-10-07T01:30:04.312Z,1010.46
2017-10-07T01:31:04.335Z,1010.46
2017-10-07T01:32:04.377Z,1010.43
2017-10-07T01:33:04.354Z,1010.42
2017-10-07T01:34:04.312Z,1010.38
2017-10-07T01:35:04.353Z,1010.44
2017-10-07T01:36:04.323Z,1010.43
2017-10-07T01:37:04.306Z,1010.48
2017-10-07T01:38:04.323Z,1010.40
2017-10-07T01:39:04.284Z,1010.44
2017-10-07T01:40:04.311Z,1010.37
2017-10-07T01:41:04.329Z,1010.43
2017-10-07T01:42:04.250Z,1010.44
2017-10-07T01:43:04.244Z,1010.39
2017-10-07T01:44:04.278Z,1010.47
2017-10-07T01:45:04.249Z,1010.49
2017-10-07T01:46:04.310Z,1010.43
2017-10-07T01:47:04.250Z,1010.45
2017-10-07T01:48:04.313Z,1010.44
2017-10-07T01:49:04.310Z,1010.45
2017-10-07T01:50:04.315Z,1010.44
2017-10-07T01:51:04.379Z,1010.47
2017-10-07T01:52:04.323Z,1010.44
2017-10-07T01:53:04.284Z,1010.44
2017-10-07T01:54:04.335Z,1010.44
2017-10-07T01:55:04.320Z,1010.41
2017-10-07T01:56:04.314Z,1010.44
2017-10-07T01:57:04.369Z,1010.45
2017-10-07T01:58:04.368Z,1010.48
2017-10-07T01:59:04.323Z,1010.46
2017-10-07T02:00:04.310Z,1010.38
2017-10-07T02:01:04.374Z,1010.43
2017-10-07T02:02:04.391Z,1010.36
2017-10-07T02:03:04.308Z,1010.37
2017-10-07T02:04:04.307Z,1010.36
2017-10-07T02:05:04.325Z,1010.36
2017-10-07T02:06:04.328Z,1010.39
2017-10-07T02:07:04.373Z,1010.41
2017-10-07T02:08:04.330Z,1010.40
2017-10-07T02:09:04.380Z,1010.39
2017-10-07T02:10:04.376Z,1010.37
2017-10-07T02:11:04.326Z,1010.37
2017-10-07T02:12:04.296Z,1010.37
2017-10-07T02:13:04.328Z,1010.32
2017-10-07T02:14:04.373Z,1010.31
2017-10-07T02:15:04.363Z,1010.35
2017-10-07T02:16:04.328Z,1010.30
2017-10-07T02:17:04.341Z,1010.32
2017-10-07T02:18:04.302Z,1010.30
2017-10-07T02:19:04.328Z,1010.28
2017-10-07T02:20:04.340Z,1010.29
2017-10-07T02:21:04.237Z,1010.27
2017-10-07T02:22:04.236Z,1010.24
2017-10-07T02:23:04.240Z,1010.24
2017-10-07T02:24:04.247Z,1010.32
2017-10-07T02:25:04.241Z,1010.29
2017-10-07T02:26:04.240Z,1010.21
2017-10-07T02:27:04.239Z,1010.26
2017-10-07T02:28:04.241Z,1010.20
2017-10-07T02:29:04.244Z,1010.20
2017-10-07T02:30:04.242Z,1010.23
2017-10-07T02:31:04.383Z,1010.18
2017-10-07T02:32:04.294Z,1010.21
2017-10-07T02:33:04.340Z,1010.17
2017-10-07T02:34:04.325Z,1010.18
2017-10-07T02:35:04.413Z,1010.17
2017-10-07T02:36:04.323Z,1010.23
2017-10-07T02:37:04.390Z,1010.19
2017-10-07T02:38:04.300Z,1010.22
2017-10-07T02:39:04.388Z,1010.27
2017-10-07T02:40:04.301Z,1010.26
2017-10-07T02:41:04.347Z,1010.22
2017-10-07T02:42:04.346Z,1010.22
2017-10-07T02:43:04.302Z,1010.17
2017-10-07T02:44:04.347Z,1010.19
2017-10-07T02:45:04.346Z,1010.18
2017-10-07T02:46:04.396Z,1010.16
2017-10-07T02:47:04.401Z,1010.21
2017-10-07T02:48:04.305Z,1010.22
2017-10-07T02:49:04.403Z,1010.24
2017-10-07T02:50:04.364Z,1010.23
2017-10-07T02:51:04.357Z,1010.28
2017-10-07T02:52:04.352Z,1010.24
2017-10-07T02:53:04.354Z,1010.26
2017-10-07T02:54:04.399Z,1010.15
2017-10-07T02:55:04.350Z,1010.22
2017-10-07T02:56:04.352Z,1010.28
2017-10-07T02:57:04.405Z,1010.30
2017-10-07T02:58:04.359Z,1010.22
2017-10-07T02:59:04.407Z,1010.28
2017-10-07T03:00:04.401Z,1010.22
2017-10-07T03:01:04.328Z,1010.26
2017-10-07T03:02:04.368Z,1010.22
2017-10-07T03:03:04.374Z,1010.25
2017-10-07T03:04:04.357Z,1010.24
2017-10-07T03:05:04.355Z,1010.24
2017-10-07T03:06:04.306Z,1010.20
2017-10-07T03:07:04.339Z,1010.18
2017-10-07T03:08:04.356Z,1010.17
2017-10-07T03:09:04.306Z,1010.19
2017-10-07T03:10:04.308Z,1010.18
2017-10-07T03:11:04.364Z,1010.15
2017-10-07T03:12:04.360Z,1010.21
2017-10-07T03:13:04.415Z,1010.22
2017-10-07T03:14:04.332Z,1010.16
2017-10-07T03:15:04.441Z,1010.20
2017-10-07T03:16:04.363Z,1010.22
2017-10-07T03:17:04.349Z,1010.20
2017-10-07T03:18:04.344Z,1010.28
2017-10-07T03:19:04.318Z,1010.29
2017-10-07T03:20:04.401Z,1010.29
2017-10-07T03:21:04.382Z,1010.28
2017-10-07T03:22:04.313Z,1010.29
2017-10-07T03:23:04.310Z,1010.25
2017-10-07T03:24:04.376Z,1010.30
2017-10-07T03:25:04.404Z,1010.31
2017-10-07T03:26:04.378Z,1010.34
2017-10-07T03:27:04.338Z,1010.28
2017-10-07T03:28:04.366Z,1010.26
2017-10-07T03:29:04.368Z,1010.29
2017-10-07T03:30:04.328Z,1010.32
2017-10-07T03:31:04.404Z,1010.30
2017-10-07T03:32:04.372Z,1010.28
2017-10-07T03:33:04.450Z,1010.31
2017-10-07T03:34:04.327Z,1010.31
2017-10-07T03:35:04.421Z,1010.29
2017-10-07T03:36:04.382Z,1010.29
2017-10-07T03:37:04.432Z,1010.26
2017-10-07T03:38:04.420Z,1010.27
2017-10-07T03:39:04.386Z,1010.28
2017-10-07T03:40:04.379Z,1010.27
2017-10-07T03:41:04.382Z,1010.26
2017-10-07T03:42:04.382Z,1010.22
2017-10-07T03:43:04.351Z,1010.24
2017-10-07T03:44:04.351Z,1010.25
2017-10-07T03:45:04.350Z,1010.25
2017-10-07T03:46:04.320Z,1010.25
2017-10-07T03:47:04.352Z,1010.24
2017-10-07T03:48:04.390Z,1010.23
2017-10-07T03:49:04.357Z,1010.24
2017-10-07T03:50:04.351Z,1010.23
2017-10-07T03:51:04.391Z,1010.22
2017-10-07T03:52:04.353Z,1010.23
2017-10-07T03:53:04.389Z,1010.20
2017-10-07T03:54:04.435Z,1010.15
2017-10-07T03:55:04.395Z,1010.20
2017-10-07T03:56:04.348Z,1010.23
2017-10-07T03:57:04.390Z,1010.22
2017-10-07T03:58:04.441Z,1010.22
2017-10-07T03:59:04.392Z,1010.25
2017-10-07T04:00:04.444Z,1010.22
2017-10-07T04:01:04.436Z,1010.28
2017-10-07T04:02:04.429Z,1010.23
2017-10-07T04:03:04.403Z,1010.27
2017-10-07T04:04:04.407Z,1010.25
2017-10-07T04:05:04.387Z,1010.21
2017-10-07T04:06:04.367Z,1010.27
2017-10-07T04:07:04.380Z,1010.23
2017-10-07T04:08:04.426Z,1010.22
2017-10-07T04:09:04.338Z,1010.23
2017-10-07T04:10:04.443Z,1010.24
2017-10-07T04:11:04.447Z,1010.26
2017-10-07T04:12:04.401Z,1010.26
2017-10-07T04:13:04.399Z,1010.26
2017-10-07T04:14:04.405Z,1010.24
2017-10-07T04:15:04.446Z,1010.21
2017-10-07T04:16:04.400Z,1010.25
2017-10-07T04:17:04.376Z,1010.19
2017-10-07T04:18:04.405Z,1010.26
2017-10-07T04:19:04.402Z,1010.24
2017-10-07T04:20:04.352Z,1010.22
2017-10-07T04:21:04.371Z,1010.21
2017-10-07T04:22:04.344Z,1010.21
2017-10-07T04:23:04.417Z,1010.21
2017-10-07T04:24:04.383Z,1010.18
2017-10-07T04:25:04.347Z,1010.18
2017-10-07T04:26:04.355Z,1010.20
2017-10-07T04:27:04.384Z,1010.22
2017-10-07T04:28:04.443Z,1010.20
2017-10-07T04:29:04.351Z,1010.15
2017-10-07T04:30:04.389Z,1010.13
2017-10-07T04:31:04.425Z,1010.12
2017-10-07T04:32:04.369Z,1010.07
2017-10-07T04:33:04.409Z,1010.12
2017-10-07T04:34:04.410Z,1010.10
2017-10-07T04:35:04.461Z,1010.08
2017-10-07T04:36:04.416Z,1010.10
2017-10-07T04:37:04.414Z,1010.07
2017-10-07T04:38:04.464Z,1010.12
2017-10-07T04:39:04.473Z,1010.07
2017-10-07T04:40:04.412Z,1010.05
2017-10-07T04:41:04.455Z,1010.04
2017-10-07T04:42:04.390Z,1010.04
2017-10-07T04:43:04.455Z,1010.04
2017-10-07T04:44:04.427Z,1010.04
2017-10-07T04:45:04.384Z,1010.03
2017-10-07T04:46:04.473Z,1010.03
2017-10-07T04:47:04.416Z,1010.00
2017-10-07T04:48:04.415Z,1010.04
2017-10-07T04:49:04.436Z,1010.03
2017-10-07T04:50:04.415Z,1010.03
2017-10-07T04:51:04.427Z,1009.99
2017-10-07T04:52:04.478Z,1010.03
2017-10-07T04:53:04.424Z,1009.99
2017-10-07T04:54:04.473Z,1010.04
2017-10-07T04:55:04.492Z,1009.97
2017-10-07T04:56:04.383Z,1010.01
2017-10-07T04:57:04.475Z,1009.99
2017-10-07T04:58:04.475Z,1010.00
2017-10-07T04:59:04.475Z,1010.01
2017-10-07T05:00:04.430Z,1010.00
2017-10-07T05:01:04.477Z,1010.05
2017-10-07T05:02:04.474Z,1010.09
2017-10-07T05:03:04.384Z,1010.07
2017-10-07T05:04:04.429Z,1010.07
2017-10-07T05:05:04.477Z,1010.05
2017-10-07T05:06:04.604Z,1010.09
2017-10-07T05:07:04.430Z,1010.03
2017-10-07T05:08:04.477Z,1010.09
2017-10-07T05:09:04.495Z,1010.10
2017-10-07T05:10:04.445Z,1010.04
2017-10-07T05:11:04.486Z,1010.04
2017-10-07T05:12:04.452Z,1010.02
2017-10-07T05:13:04.404Z,1009.95
2017-10-07T05:14:04.433Z,1010.00
2017-10-07T05:15:04.484Z,1009.96
2017-10-07T05:16:04.496Z,1009.99
2017-10-07T05:17:04.486Z,1010.02
2017-10-07T05:18:04.442Z,1010.00
2017-10-07T05:19:04.437Z,1010.01
2017-10-07T05:20:04.454Z,1010.05
2017-10-07T05:21:04.485Z,1010.04
2017-10-07T05:22:04.396Z,1010.06
2017-10-07T05:23:04.440Z,1010.05
2017-10-07T05:24:04.493Z,1010.05
2017-10-07T05:25:04.519Z,1010.11
2017-10-07T05:26:04.444Z,1010.14
2017-10-07T05:27:04.582Z,1010.16
2017-10-07T05:28:04.450Z,1010.11
2017-10-07T05:29:04.446Z,1010.14
2017-10-07T05:30:04.490Z,1010.16
2017-10-07T05:31:04.447Z,1010.19
2017-10-07T05:32:04.500Z,1010.19
2017-10-07T05:33:04.450Z,1010.15
2017-10-07T05:34:04.516Z,1010.16
2017-10-07T05:35:04.499Z,1010.14
2017-10-07T05:36:04.447Z,1010.15
2017-10-07T05:37:04.499Z,1010.14
2017-10-07T05:38:04.538Z,1010.19
2017-10-07T05:39:04.469Z,1010.16
2017-10-07T05:40:04.501Z,1010.14
2017-10-07T05:41:04.389Z,1010.17
2017-10-07T05:42:04.389Z,1010.16
2017-10-07T05:43:04.451Z,1010.12
2017-10-07T05:44:04.461Z,1010.16
2017-10-07T05:45:04.424Z,1010.14
2017-10-07T05:46:04.430Z,1010.13
2017-10-07T05:47:04.462Z,1010.07
2017-10-07T05:48:04.446Z,1010.08
2017-10-07T05:49:04.419Z,1010.08
2017-10-07T05:50:04.478Z,1010.10
2017-10-07T05:51:04.400Z,1010.06
2017-10-07T05:52:04.491Z,1010.13
2017-10-07T05:53:04.429Z,1010.15
2017-10-07T05:54:04.497Z,1010.12
2017-10-07T05:55:04.427Z,1010.12
2017-10-07T05:56:04.452Z,1010.09
2017-10-07T05:57:04.405Z,1010.11
2017-10-07T05:58:04.425Z,1010.14
2017-10-07T05:59:04.410Z,1010.11
2017-10-07T06:00:04.433Z,1010.11
2017-10-07T06:01:04.461Z,1010.07
2017-10-07T06:02:04.428Z,1010.06
2017-10-07T06:03:04.401Z,1010.02
2017-10-07T06:04:04.425Z,1009.98
2017-10-07T06:05:04.462Z,1009.98
2017-10-07T06:06:04.427Z,1009.95
2017-10-07T06:07:04.428Z,1009.98
2017-10-07T06:08:04.434Z,1010.00
2017-10-07T06:09:04.428Z,1009.95
2017-10-07T06:10:04.432Z,1009.94
2017-10-07T06:11:04.467Z,1009.91
2017-10-07T06:12:04.438Z,1009.89
2017-10-07T06:13:04.479Z,1009.90
2017-10-07T06:14:04.417Z,1009.92
2017-10-07T06:15:04.450Z,1009.93
2017-10-07T06:16:04.522Z,1009.90
2017-10-07T06:17:04.418Z,1009.94
2017-10-07T06:18:04.524Z,1009.90
2017-10-07T06:19:04.417Z,1009.97
2017-10-07T06:20:04.522Z,1009.96
2017-10-07T06:21:04.484Z,1009.93
2017-10-07T06:22:04.525Z,1009.96
2017-10-07T06:23:04.550Z,1009.94
2017-10-07T06:24:04.423Z,1009.98
2017-10-07T06:25:04.459Z,1009.91
2017-10-07T06:26:04.527Z,1010.00
2017-10-07T06:27:04.488Z,1009.93
2017-10-07T06:28:04.457Z,1009.99
2017-10-07T06:29:04.549Z,1009.94
2017-10-07T06:30:04.461Z,1009.95
2017-10-07T06:31:04.528Z,1009.92
2017-10-07T06:32:04.529Z,1009.95
2017-10-07T06:33:04.475Z,1009.93
2017-10-07T06:34:04.479Z,1009.92
2017-10-07T06:35:04.448Z,1009.93
2017-10-07T06:36:04.483Z,1009.92
2017-10-07T06:37:04.508Z,1009.88
2017-10-07T06:38:04.538Z,1009.88
2017-10-07T06:39:04.486Z,1009.87
2017-10-07T06:40:04.538Z,1009.85
2017-10-07T06:41:04.485Z,1009.80
2017-10-07T06:42:04.462Z,1009.78
2017-10-07T06:43:04.451Z,1009.76
2017-10-07T06:44:04.429Z,1009.80
2017-10-07T06:45:04.468Z,1009.80
2017-10-07T06:46:04.436Z,1009.79
2017-10-07T06:47:04.503Z,1009.78
2017-10-07T06:48:04.501Z,1009.71
2017-10-07T06:49:04.483Z,1009.69
2017-10-07T06:50:04.500Z,1009.67
2017-10-07T06:51:04.518Z,1009.70
2017-10-07T06:52:04.472Z,1009.75
2017-10-07T06:53:04.534Z,1009.72
2017-10-07T06:54:04.520Z,1009.69
2017-10-07T06:55:04.460Z,1009.67
2017-10-07T06:56:04.491Z,1009.69
2017-10-07T06:57:04.510Z,1009.73
2017-10-07T06:58:04.537Z,1009.69
2017-10-07T06:59:04.456Z,1009.69
2017-10-07T07:00:04.439Z,1009.65
2017-10-07T07:01:04.509Z,1009.70
2017-10-07T07:02:04.553Z,1009.69
2017-10-07T07:03:04.501Z,1009.76
2017-10-07T07:04:04.509Z,1009.70
2017-10-07T07:05:04.506Z,1009.72
2017-10-07T07:06:04.526Z,1009.67
2017-10-07T07:07:04.503Z,1009.66
2017-10-07T07:08:04.549Z,1009.66
2017-10-07T07:09:04.485Z,1009.66
2017-10-07T07:10:04.551Z,1009.63
2017-10-07T07:11:04.482Z,1009.61
2017-10-07T07:12:04.557Z,1009.53
2017-10-07T07:13:04.556Z,1009.58
2017-10-07T07:14:04.514Z,1009.58
2017-10-07T07:15:04.509Z,1009.63
2017-10-07T07:16:04.548Z,1009.58
2017-10-07T07:17:04.531Z,1009.51
2017-10-07T07:18:04.557Z,1009.56
2017-10-07T07:19:04.557Z,1009.60
2017-10-07T07:20:04.564Z,1009.52
2017-10-07T07:21:04.446Z,1009.51
2017-10-07T07:22:04.507Z,1009.50
2017-10-07T07:23:04.445Z,1009.56
2017-10-07T07:24:04.451Z,1009.48
2017-10-07T07:25:04.505Z,1009.49
2017-10-07T07:26:04.450Z,1009.45
2017-10-07T07:27:04.480Z,1009.47
2017-10-07T07:28:04.475Z,1009.51
2017-10-07T07:29:04.477Z,1009.46
2017-10-07T07:30:04.511Z,1009.55
2017-10-07T07:31:04.562Z,1009.38
2017-10-07T07:32:04.581Z,1009.51
2017-10-07T07:33:04.566Z,1009.46
2017-10-07T07:34:04.514Z,1009.43
2017-10-07T07:35:04.467Z,1009.45
2017-10-07T07:36:04.675Z,1009.45
2017-10-07T07:37:04.500Z,1009.42
2017-10-07T07:38:04.519Z,1009.45
2017-10-07T07:39:04.564Z,1009.45
2017-10-07T07:40:04.526Z,1009.45
2017-10-07T07:41:04.553Z,1009.49
2017-10-07T07:42:04.523Z,1009.43
2017-10-07T07:43:04.462Z,1009.38
2017-10-07T07:44:04.499Z,1009.40
2017-10-07T07:45:04.469Z,1009.43
2017-10-07T07:46:04.564Z,1009.35
2017-10-07T07:47:04.464Z,1009.38
2017-10-07T07:48:04.486Z,1009.38
2017-10-07T07:49:04.489Z,1009.39
2017-10-07T07:50:04.532Z,1009.33
2017-10-07T07:51:04.553Z,1009.37
2017-10-07T07:52:04.455Z,1009.34
2017-10-07T07:53:04.461Z,1009.40
2017-10-07T07:54:04.492Z,1009.35
2017-10-07T07:55:04.487Z,1009.32
2017-10-07T07:56:04.488Z,1009.36
2017-10-07T07:57:04.494Z,1009.33
2017-10-07T07:58:04.491Z,1009.29
2017-10-07T07:59:04.467Z,1009.32
2017-10-07T08:00:04.528Z,1009.32
2017-10-07T08:01:04.539Z,1009.24
2017-10-07T08:02:04.509Z,1009.24
2017-10-07T08:03:04.548Z,1009.17
2017-10-07T08:04:04.498Z,1009.20
2017-10-07T08:05:04.514Z,1009.19
2017-10-07T08:06:04.562Z,1009.19
2017-10-07T08:07:04.582Z,1009.17
2017-10-07T08:08:04.580Z,1009.16
2017-10-07T08:09:04.585Z,1009.18
2017-10-07T08:10:04.521Z,1009.18
2017-10-07T08:11:04.570Z,1009.18
2017-10-07T08:12:04.580Z,1009.14
2017-10-07T08:13:04.518Z,1009.16
2017-10-07T08:14:04.545Z,1009.14
2017-10-07T08:15:04.534Z,1009.05
2017-10-07T08:16:04.574Z,1009.16
2017-10-07T08:17:04.512Z,1009.07
2017-10-07T08:18:04.484Z,1009.05
2017-10-07T08:19:04.555Z,1009.05
2017-10-07T08:20:04.487Z,1009.07
2017-10-07T08:21:04.491Z,1009.11
2017-10-07T08:22:04.556Z,1009.09
2017-10-07T08:23:04.486Z,1009.02
2017-10-07T08:24:04.550Z,1009.05
2017-10-07T08:25:04.602Z,1009.00
2017-10-07T08:26:04.488Z,1009.05
2017-10-07T08:27:04.586Z,1008.99
2017-10-07T08:28:04.552Z,1008.90
2017-10-07T08:29:04.591Z,1008.95
2017-10-07T08:30:04.492Z,1008.94
2017-10-07T08:31:04.589Z,1008.84
2017-10-07T08:32:04.529Z,1008.80
2017-10-07T08:33:04.497Z,1008.67
2017-10-07T08:34:04.601Z,1008.74
2017-10-07T08:35:04.519Z,1008.65
2017-10-07T08:36:04.579Z,1008.67
2017-10-07T08:37:04.554Z,1008.69
2017-10-07T08:38:04.602Z,1008.70
2017-10-07T08:39:04.503Z,1008.63
2017-10-07T08:40:04.538Z,1008.63
2017-10-07T08:41:04.520Z,1008.61
2017-10-07T08:42:04.557Z,1008.65
2017-10-07T08:43:04.500Z,1008.52
2017-10-07T08:44:04.515Z,1008.58
2017-10-07T08:45:04.604Z,1008.54
2017-10-07T08:46:04.559Z,1008.49
2017-10-07T08:47:04.503Z,1008.51
2017-10-07T08:48:04.578Z,1008.41
2017-10-07T08:49:04.557Z,1008.46
2017-10-07T08:50:04.557Z,1008.46
2017-10-07T08:51:04.558Z,1008.44
2017-10-07T08:52:04.543Z,1008.49
2017-10-07T08:53:04.564Z,1008.46
2017-10-07T08:54:04.515Z,1008.43
2017-10-07T08:55:04.616Z,1008.45
2017-10-07T08:56:04.547Z,1008.47
2017-10-07T08:57:04.613Z,1008.48
2017-10-07T08:58:04.611Z,1008.37
2017-10-07T08:59:04.570Z,1008.41
2017-10-07T09:00:04.565Z,1008.46
2017-10-07T09:01:04.639Z,1008.37
2017-10-07T09:02:04.548Z,1008.43
2017-10-07T09:03:04.623Z,1008.35
2017-10-07T09:04:04.616Z,1008.45
2017-10-07T09:05:04.571Z,1008.37
2017-10-07T09:06:04.574Z,1008.38
2017-10-07T09:07:04.556Z,1008.34
2017-10-07T09:08:04.581Z,1008.34
2017-10-07T09:09:04.536Z,1008.44
2017-10-07T09:10:04.625Z,1008.41
2017-10-07T09:11:04.591Z,1008.39
2017-10-07T09:12:04.581Z,1008.41
2017-10-07T09:13:04.538Z,1008.31
2017-10-07T09:14:04.498Z,1008.34
2017-10-07T09:15:04.540Z,1008.23
2017-10-07T09:16:04.514Z,1008.23
2017-10-07T09:17:04.538Z,1008.26
2017-10-07T09:18:04.484Z,1008.24
2017-10-07T09:19:04.543Z,1008.17
2017-10-07T09:20:04.516Z,1008.18
2017-10-07T09:21:04.474Z,1008.20
2017-10-07T09:22:04.584Z,1008.23
2017-10-07T09:23:04.578Z,1008.17
2017-10-07T09:24:04.525Z,1008.13
2017-10-07T09:25:04.566Z,1008.15
2017-10-07T09:26:04.651Z,1008.13
2017-10-07T09:27:04.567Z,1008.10
2017-10-07T09:28:04.585Z,1008.05
2017-10-07T09:29:04.630Z,1008.10
2017-10-07T09:30:04.624Z,1008.10
2017-10-07T09:31:04.534Z,1008.02
2017-10-07T09:32:04.537Z,1008.05
2017-10-07T09:33:04.568Z,1007.98
2017-10-07T09:34:04.553Z,1007.94
2017-10-07T09:35:04.636Z,1007.89
2017-10-07T09:36:04.540Z,1007.82
2017-10-07T09:37:04.532Z,1007.96
2017-10-07T09:38:04.619Z,1007.82
2017-10-07T09:39:04.566Z,1007.84
2017-10-07T09:40:04.537Z,1007.91
2017-10-07T09:41:04.638Z,1007.89
2017-10-07T09:42:04.527Z,1007.88
2017-10-07T09:43:04.560Z,1007.80
2017-10-07T09:44:04.590Z,1007.79
2017-10-07T09:45:04.532Z,1007.75
2017-10-07T09:46:04.590Z,1007.70
2017-10-07T09:47:04.557Z,1007.73
2017-10-07T09:48:04.559Z,1007.73
2017-10-07T09:49:04.598Z,1007.70
2017-10-07T09:50:04.561Z,1007.66
2017-10-07T09:51:04.591Z,1007.69
2017-10-07T09:52:04.548Z,1007.63
2017-10-07T09:53:04.596Z,1007.68
2017-10-07T09:54:04.652Z,1007.58
2017-10-07T09:55:04.549Z,1007.61
2017-10-07T09:56:04.649Z,1007.58
2017-10-07T09:57:04.648Z,1007.61
2017-10-07T09:58:04.581Z,1007.60
2017-10-07T09:59:04.583Z,1007.52
2017-10-07T10:00:04.651Z,1007.51
2017-10-07T10:01:04.583Z,1007.52
2017-10-07T10:02:04.615Z,1007.53
2017-10-07T10:03:04.681Z,1007.56
2017-10-07T10:04:04.604Z,1007.60
2017-10-07T10:05:04.653Z,1007.53
2017-10-07T10:06:04.653Z,1007.57
2017-10-07T10:07:04.659Z,1007.53
2017-10-07T10:08:04.611Z,1007.51
2017-10-07T10:09:04.617Z,1007.51
2017-10-07T10:10:04.555Z,1007.37
2017-10-07T10:11:04.608Z,1007.32
2017-10-07T10:12:04.635Z,1007.41
2017-10-07T10:13:04.592Z,1007.37
2017-10-07T10:14:04.618Z,1007.37
2017-10-07T10:15:04.670Z,1007.36
2017-10-07T10:16:04.612Z,1007.36
2017-10-07T10:17:04.619Z,1007.32
2017-10-07T10:18:04.665Z,1007.35
2017-10-07T10:19:04.646Z,1007.27
2017-10-07T10:20:04.643Z,1007.26
2017-10-07T10:21:04.636Z,1007.28
2017-10-07T10:22:04.631Z,1007.21
2017-10-07T10:23:04.624Z,1007.17
2017-10-07T10:24:04.557Z,1007.22
2017-10-07T10:25:04.656Z,1007.25
2017-10-07T10:26:04.598Z,1007.18
2017-10-07T10:27:04.559Z,1007.15
2017-10-07T10:28:04.636Z,1007.17
2017-10-07T10:29:04.561Z,1007.15
2017-10-07T10:30:04.620Z,1007.11
2017-10-07T10:31:04.597Z,1007.18
2017-10-07T10:32:04.585Z,1007.05
2017-10-07T10:33:04.591Z,1007.06
2017-10-07T10:34:04.626Z,1007.04
2017-10-07T10:35:04.625Z,1006.99
2017-10-07T10:36:04.661Z,1006.96
2017-10-07T10:37:04.623Z,1007.02
2017-10-07T10:38:04.658Z,1006.98
2017-10-07T10:39:04.575Z,1006.95
2017-10-07T10:40:04.743Z,1006.85
2017-10-07T10:41:04.627Z,1006.87
2017-10-07T10:42:04.585Z,1006.80
2017-10-07T10:43:04.548Z,1006.89
2017-10-07T10:44:04.587Z,1006.79
2017-10-07T10:45:04.578Z,1006.84
2017-10-07T10:46:04.603Z,1006.77
2017-10-07T10:47:04.637Z,1006.76
2017-10-07T10:48:04.602Z,1006.79
2017-10-07T10:49:04.638Z,1006.79
2017-10-07T10:50:04.595Z,1006.79
2017-10-07T10:51:04.597Z,1006.79
2017-10-07T10:52:04.635Z,1006.81
2017-10-07T10:53:04.638Z,1006.87
2017-10-07T10:54:04.606Z,1006.87
2017-10-07T10:55:04.646Z,1006.82
2017-10-07T10:56:04.599Z,1006.82
2017-10-07T10:57:04.581Z,1006.82
2017-10-07T10:58:04.618Z,1006.81
2017-10-07T10:59:04.617Z,1006.79
2017-10-07T11:00:04.645Z,1006.78
2017-10-07T11:01:04.617Z,1006.77
2017-10-07T11:02:04.604Z,1006.74
2017-10-07T11:03:04.610Z,1006.72
2017-10-07T11:04:04.598Z,1006.71
2017-10-07T11:05:04.599Z,1006.66
2017-10-07T11:06:04.579Z,1006.66
2017-10-07T11:07:04.577Z,1006.61
2017-10-07T11:08:04.608Z,1006.64
2017-10-07T11:09:04.641Z,1006.58
2017-10-07T11:10:04.607Z,1006.48
2017-10-07T11:11:04.605Z,1006.61
2017-10-07T11:12:04.645Z,1006.59
2017-10-07T11:13:04.647Z,1006.55
2017-10-07T11:14:04.650Z,1006.58
2017-10-07T11:15:04.648Z,1006.50
2017-10-07T11:16:04.671Z,1006.48
2017-10-07T11:17:04.698Z,1006.50
2017-10-07T11:18:04.678Z,1006.47
2017-10-07T11:19:04.676Z,1006.42
2017-10-07T11:20:04.632Z,1006.47
2017-10-07T11:21:04.780Z,1006.43
2017-10-07T11:22:04.620Z,1006.41
2017-10-07T11:23:04.614Z,1006.43
2017-10-07T11:24:04.585Z,1006.40
2017-10-07T11:25:04.646Z,1006.41
2017-10-07T11:26:04.588Z,1006.31
2017-10-07T11:27:04.618Z,1006.26
2017-10-07T11:28:04.617Z,1006.28
2017-10-07T11:29:04.650Z,1006.23
2017-10-07T11:30:04.671Z,1006.23
2017-10-07T11:31:04.590Z,1006.22
2017-10-07T11:32:04.601Z,1006.21
2017-10-07T11:33:04.643Z,1006.20
2017-10-07T11:34:04.669Z,1006.28
2017-10-07T11:35:04.637Z,1006.28
2017-10-07T11:36:04.670Z,1006.23
2017-10-07T11:37:04.622Z,1006.18
2017-10-07T11:38:04.643Z,1006.16
2017-10-07T11:39:04.665Z,1006.22
2017-10-07T11:40:04.627Z,1006.13
2017-10-07T11:41:04.693Z,1006.10
2017-10-07T11:42:04.628Z,1006.15
2017-10-07T11:43:04.671Z,1006.07
2017-10-07T11:44:04.643Z,1006.05
2017-10-07T11:45:04.693Z,1006.05
2017-10-07T11:46:04.678Z,1005.99
2017-10-07T11:47:04.714Z,1005.97
2017-10-07T11:48:04.664Z,1005.92
2017-10-07T11:49:04.691Z,1005.88
2017-10-07T11:50:04.741Z,1005.83
2017-10-07T11:51:04.716Z,1005.88
2017-10-07T11:52:04.721Z,1005.80
2017-10-07T11:53:04.653Z,1005.74
2017-10-07T11:54:04.721Z,1005.75
2017-10-07T11:55:04.718Z,1005.69
2017-10-07T11:56:04.669Z,1005.72
2017-10-07T11:57:04.672Z,1005.79
2017-10-07T11:58:04.661Z,1005.73
2017-10-07T11:59:04.672Z,1005.72
2017-10-07T12:00:04.703Z,1005.72
2017-10-07T12:01:04.623Z,1005.71
2017-10-07T12:02:04.669Z,1005.70
2017-10-07T12:03:04.645Z,1005.60
2017-10-07T12:04:04.653Z,1005.60
2017-10-07T12:05:04.715Z,1005.61